createdAt,value
2019-06-20T00:02:10.650Z,99158.91
2019-06-20T00:04:39.293Z,99157.86
2019-06-20T00:07:07.972Z,99153.35
2019-06-20T00:09:36.612Z,99151.05
2019-06-20T00:12:05.324Z,99151.49
2019-06-20T00:14:33.831Z,99141.25
2019-06-20T00:17:02.330Z,99148.80
2019-06-20T00:19:30.924Z,99148.59
2019-06-20T00:21:59.486Z,99141.87
2019-06-20T00:24:28.123Z,99138.42
2019-06-20T00:26:56.768Z,99127.23
2019-06-20T00:29:25.334Z,99131.41
2019-06-20T00:31:53.870Z,99127.08
2019-06-20T00:34:22.517Z,99128.05
2019-06-20T00:36:51.470Z,99118.51
2019-06-20T00:39:20.095Z,99116.21
2019-06-20T00:41:48.660Z,99114.27
2019-06-20T00:44:17.267Z,99119.09
2019-06-20T00:46:45.836Z,99110.75
2019-06-20T00:49:14.384Z,99113.36
2019-06-20T00:51:43.023Z,99109.44
2019-06-20T00:54:11.563Z,99106.94
2019-06-20T00:56:40.173Z,99111.34
2019-06-20T00:59:08.741Z,99112.89
2019-06-20T01:01:37.364Z,99114.30
2019-06-20T01:04:05.999Z,99108.41
2019-06-20T01:06:34.582Z,99109.42
2019-06-20T01:09:03.074Z,99110.97
2019-06-20T01:11:31.687Z,99109.11
2019-06-20T01:14:00.174Z,99111.33
2019-06-20T01:16:28.789Z,99105.20
2019-06-20T01:18:57.435Z,99112.54
2019-06-20T01:21:26.006Z,99108.95
2019-06-20T01:23:54.612Z,99108.91
2019-06-20T01:26:23.240Z,99109.16
2019-06-20T01:28:51.880Z,99107.80
2019-06-20T01:31:20.515Z,99115.98
2019-06-20T01:33:49.085Z,99118.48
2019-06-20T01:36:17.658Z,99119.34
2019-06-20T01:38:46.258Z,99120.77
2019-06-20T01:41:14.826Z,99126.53
2019-06-20T01:43:50.403Z,99125.66
2019-06-20T01:46:13.855Z,99121.27
2019-06-20T01:48:42.486Z,99121.08
2019-06-20T01:51:11.256Z,99122.84
2019-06-20T01:53:39.842Z,99121.89
2019-06-20T01:56:08.508Z,99125.21
2019-06-20T01:58:37.142Z,99124.52
2019-06-20T02:01:05.926Z,99125.85
2019-06-20T02:03:34.568Z,99127.17
2019-06-20T02:06:03.262Z,99128.77
2019-06-20T02:08:31.904Z,99125.16
2019-06-20T02:11:00.551Z,99128.70
2019-06-20T02:13:29.199Z,99130.72
2019-06-20T02:15:57.936Z,99133.25
2019-06-20T02:18:26.616Z,99134.75
2019-06-20T02:20:57.650Z,99139.84
2019-06-20T02:23:26.320Z,99137.22
2019-06-20T02:25:55.068Z,99136.73
2019-06-20T02:28:24.165Z,99134.72
2019-06-20T02:30:52.821Z,99143.98
2019-06-20T02:33:21.492Z,99142.58
2019-06-20T02:35:50.168Z,99137.37
2019-06-20T02:38:18.802Z,99138.45
2019-06-20T02:40:47.487Z,99147.11
2019-06-20T02:43:16.183Z,99144.59
2019-06-20T02:45:44.818Z,99142.42
2019-06-20T02:48:13.468Z,99136.59
2019-06-20T02:50:42.207Z,99147.44
2019-06-20T02:53:10.811Z,99146.59
2019-06-20T02:55:39.436Z,99147.23
2019-06-20T02:58:08.084Z,99147.98
2019-06-20T03:00:57.142Z,99148.01
2019-06-20T03:03:26.381Z,99150.23
2019-06-20T03:05:55.013Z,99153.64
2019-06-20T03:08:23.782Z,99156.86
2019-06-20T03:10:52.425Z,99150.66
2019-06-20T03:13:21.100Z,99151.30
2019-06-20T03:15:50.172Z,99151.08
2019-06-20T03:18:18.816Z,99153.96
2019-06-20T03:20:47.527Z,99152.65
2019-06-20T03:23:16.195Z,99151.24
2019-06-20T03:25:44.773Z,99151.72
2019-06-20T03:28:13.434Z,99154.47
2019-06-20T03:30:41.934Z,99149.81
2019-06-20T03:33:10.533Z,99143.91
2019-06-20T03:35:39.170Z,99145.09
2019-06-20T03:38:07.798Z,99147.28
2019-06-20T03:40:36.449Z,99149.73
2019-06-20T03:43:05.091Z,99152.86
2019-06-20T03:45:34.682Z,99152.11
2019-06-20T03:48:03.324Z,99152.89
2019-06-20T03:50:32.066Z,99152.31
2019-06-20T03:53:03.341Z,99154.56
2019-06-20T03:55:33.385Z,99154.62
2019-06-20T03:58:02.570Z,99149.61
2019-06-20T04:00:33.582Z,99154.18
2019-06-20T04:03:02.532Z,99155.91
2019-06-20T04:05:31.186Z,99153.22
2019-06-20T04:07:59.699Z,99156.88
2019-06-20T04:10:28.379Z,99157.50
2019-06-20T04:12:56.937Z,99162.76
2019-06-20T04:15:25.681Z,99160.52
2019-06-20T04:17:54.367Z,99156.16
2019-06-20T04:20:23.001Z,99164.53
2019-06-20T04:22:51.564Z,99175.20
2019-06-20T04:25:20.110Z,99167.14
2019-06-20T04:27:48.800Z,99178.17
2019-06-20T04:30:17.542Z,99176.73
2019-06-20T04:32:46.177Z,99176.14
2019-06-20T04:35:14.836Z,99167.34
2019-06-20T04:37:43.333Z,99174.98
2019-06-20T04:40:12.633Z,99180.19
2019-06-20T04:42:41.193Z,99180.32
2019-06-20T04:45:35.049Z,99175.83
2019-06-20T04:47:57.308Z,99181.51
2019-06-20T04:50:25.907Z,99174.52
2019-06-20T04:52:54.407Z,99177.77
2019-06-20T04:55:23.017Z,99181.53
2019-06-20T04:57:51.596Z,99179.97
2019-06-20T05:00:20.229Z,99177.20
2019-06-20T05:02:48.812Z,99176.97
2019-06-20T05:05:17.482Z,99173.79
2019-06-20T05:07:46.261Z,99172.46
2019-06-20T05:10:15.349Z,99175.72
2019-06-20T05:12:46.530Z,99174.45
2019-06-20T05:15:15.542Z,99165.82
2019-06-20T05:17:47.250Z,99167.39
2019-06-20T05:20:16.256Z,99171.89
2019-06-20T05:22:45.125Z,99181.59
2019-06-20T05:25:14.553Z,99174.33
2019-06-20T05:27:44.900Z,99176.23
2019-06-20T05:30:14.062Z,99174.05
2019-06-20T05:32:42.881Z,99173.30
2019-06-20T05:35:11.609Z,99168.88
2019-06-20T05:37:40.184Z,99170.52
2019-06-20T05:40:10.521Z,99170.00
2019-06-20T05:42:43.655Z,99165.55
2019-06-20T05:45:15.544Z,99164.55
2019-06-20T05:47:44.349Z,99156.13
2019-06-20T05:50:13.280Z,99162.19
2019-06-20T05:52:46.299Z,99157.20
2019-06-20T05:55:16.679Z,99163.10
2019-06-20T05:57:45.388Z,99163.10
2019-06-20T06:03:00.954Z,99154.98
2019-06-20T06:05:29.801Z,99159.38
2019-06-20T06:08:00.162Z,99151.34
2019-06-20T06:10:29.007Z,99155.94
2019-06-20T06:12:58.628Z,99155.23
2019-06-20T06:15:28.953Z,99149.64
2019-06-20T06:17:57.744Z,99147.27
2019-06-20T06:20:26.727Z,99143.45
2019-06-20T06:22:56.993Z,99138.52
2019-06-20T06:25:25.812Z,99140.74
2019-06-20T06:27:56.158Z,99135.03
2019-06-20T06:30:25.353Z,99134.75
2019-06-20T06:32:55.846Z,99137.41
2019-06-20T06:35:27.657Z,99138.30
2019-06-20T06:37:56.651Z,99141.17
2019-06-20T06:40:30.010Z,99141.61
2019-06-20T06:43:01.747Z,99144.02
2019-06-20T06:45:30.555Z,99139.50
2019-06-20T06:48:02.002Z,99141.77
2019-06-20T06:50:30.838Z,99135.11
2019-06-20T06:53:02.609Z,99132.16
2019-06-20T06:55:31.539Z,99133.95
2019-06-20T06:58:00.386Z,99133.83
2019-06-20T07:00:32.283Z,99127.00
2019-06-20T07:03:01.171Z,99132.19
2019-06-20T07:05:30.136Z,99130.20
2019-06-20T07:07:58.792Z,99129.42
2019-06-20T07:10:27.980Z,99129.75
2019-06-20T07:12:56.636Z,99128.47
2019-06-20T07:15:25.379Z,99123.44
2019-06-20T07:17:54.013Z,99124.98
2019-06-20T07:20:22.925Z,99126.32
2019-06-20T07:22:51.715Z,99122.65
2019-06-20T07:25:20.514Z,99122.66
2019-06-20T07:27:50.794Z,99121.32
2019-06-20T07:30:21.410Z,99114.77
2019-06-20T07:32:50.334Z,99118.39
2019-06-20T07:35:19.687Z,99114.54
2019-06-20T07:37:48.573Z,99120.84
2019-06-20T07:40:17.358Z,99115.17
2019-06-20T07:42:46.117Z,99112.42
2019-06-20T07:45:15.353Z,99104.61
2019-06-20T07:47:46.483Z,99110.56
2019-06-20T07:50:16.899Z,99114.52
2019-06-20T07:53:00.829Z,99105.08
2019-06-20T07:55:16.413Z,99112.17
2019-06-20T07:57:48.067Z,99111.18
2019-06-20T08:00:16.998Z,99107.41
2019-06-20T08:02:45.801Z,99101.92
2019-06-20T08:05:15.102Z,99105.39
2019-06-20T08:07:43.976Z,99095.61
2019-06-20T08:10:17.843Z,99098.28
2019-06-20T08:12:50.790Z,99091.33
2019-06-20T08:15:20.019Z,99091.38
2019-06-20T08:17:52.127Z,99082.86
2019-06-20T08:20:24.310Z,99083.44
2019-06-20T08:22:53.172Z,99083.84
2019-06-20T08:25:22.520Z,99084.33
2019-06-20T08:27:54.049Z,99087.92
2019-06-20T08:30:31.870Z,99085.77
2019-06-20T08:33:07.575Z,99087.89
2019-06-20T08:35:33.339Z,99088.48
2019-06-20T08:38:03.606Z,99088.70
2019-06-20T08:40:36.471Z,99084.66
2019-06-20T08:43:06.326Z,99080.86
2019-06-20T08:45:42.356Z,99085.19
2019-06-20T08:48:11.231Z,99086.37
2019-06-20T08:50:43.417Z,99080.27
2019-06-20T08:53:12.178Z,99073.69
2019-06-20T08:55:41.024Z,99071.67
2019-06-20T08:58:09.870Z,99070.70
2019-06-20T09:00:40.355Z,99074.84
2019-06-20T09:03:09.133Z,99069.23
2019-06-20T09:05:37.765Z,99066.05
2019-06-20T09:08:11.123Z,99062.94
2019-06-20T09:10:39.569Z,99067.20
2019-06-20T09:13:08.529Z,99060.45
2019-06-20T09:15:40.538Z,99054.38
2019-06-20T09:18:09.462Z,99043.69
2019-06-20T09:20:38.200Z,99045.75
2019-06-20T09:23:06.828Z,99032.02
2019-06-20T09:25:35.601Z,99031.44
2019-06-20T09:28:05.381Z,99035.95
2019-06-20T09:30:34.418Z,99028.59
2019-06-20T09:33:04.217Z,99027.38
2019-06-20T09:35:36.199Z,99026.89
2019-06-20T09:38:05.167Z,99019.92
2019-06-20T09:40:33.959Z,99020.78
2019-06-20T09:43:02.993Z,99015.30
2019-06-20T09:45:31.748Z,99016.61
2019-06-20T09:48:00.593Z,99011.74
2019-06-20T09:50:30.981Z,99011.56
2019-06-20T09:52:59.656Z,99002.37
2019-06-20T09:55:28.972Z,98998.68
2019-06-20T09:57:58.259Z,98996.28
2019-06-20T10:00:28.406Z,98998.96
2019-06-20T10:02:57.812Z,98999.31
2019-06-20T10:05:29.955Z,98999.24
2019-06-20T10:08:01.812Z,98997.97
2019-06-20T10:10:32.551Z,99008.03
2019-06-20T10:13:01.346Z,99015.52
2019-06-20T10:15:35.912Z,99003.16
2019-06-20T10:18:04.804Z,99011.20
2019-06-20T10:20:33.544Z,99014.10
2019-06-20T10:23:03.926Z,99006.03
2019-06-20T10:25:35.559Z,99009.66
2019-06-20T10:28:05.746Z,99007.37
2019-06-20T10:30:34.582Z,99014.77
2019-06-20T10:33:03.376Z,99012.55
2019-06-20T10:35:32.135Z,99011.64
2019-06-20T10:38:00.967Z,99009.72
2019-06-20T10:40:29.878Z,99005.88
2019-06-20T10:43:01.671Z,99003.33
2019-06-20T10:45:30.789Z,98995.49
2019-06-20T10:47:59.530Z,99008.14
2019-06-20T10:50:28.465Z,98987.22
2019-06-20T10:52:57.263Z,98985.82
2019-06-20T10:55:26.152Z,98987.30
2019-06-20T10:57:54.847Z,98980.88
2019-06-20T11:00:31.437Z,98988.34
2019-06-20T11:02:59.124Z,98987.95
2019-06-20T11:05:27.868Z,98974.79
2019-06-20T11:07:56.647Z,98970.06
2019-06-20T11:10:26.220Z,98965.19
2019-06-20T11:12:56.296Z,98962.98
2019-06-20T11:15:25.727Z,98956.16
2019-06-20T11:17:56.942Z,98961.59
2019-06-20T11:20:26.141Z,98962.75
2019-06-20T11:22:54.900Z,98958.22
2019-06-20T11:25:23.795Z,98940.31
2019-06-20T11:27:52.573Z,98943.13
2019-06-20T11:30:26.687Z,98944.67
2019-06-20T11:32:55.500Z,98942.00
2019-06-20T11:35:26.922Z,98939.22
2019-06-20T11:37:58.215Z,98938.70
2019-06-20T11:40:27.028Z,98928.27
2019-06-20T11:42:55.814Z,98923.91
2019-06-20T11:45:27.825Z,98923.50
2019-06-20T11:47:56.578Z,98929.09
2019-06-20T11:50:25.383Z,98917.05
2019-06-20T11:52:55.982Z,98925.97
2019-06-20T11:55:25.098Z,98915.02
2019-06-20T11:57:54.018Z,98917.63
2019-06-20T12:00:23.125Z,98912.67
2019-06-20T12:02:54.674Z,98908.13
2019-06-20T12:05:23.537Z,98910.81
2019-06-20T12:07:52.240Z,98908.09
2019-06-20T12:10:22.681Z,98900.80
2019-06-20T12:12:51.380Z,98908.08
2019-06-20T12:15:22.958Z,98903.10
2019-06-20T12:17:51.984Z,98898.98
2019-06-20T12:20:21.545Z,98898.86
2019-06-20T12:22:50.759Z,98891.14
2019-06-20T12:25:20.629Z,98888.30
2019-06-20T12:27:53.681Z,98872.53
2019-06-20T12:30:25.707Z,98885.85
2019-06-20T12:32:56.424Z,98885.58
2019-06-20T12:35:35.727Z,98884.33
2019-06-20T12:38:04.854Z,98878.89
2019-06-20T12:40:33.507Z,98872.78
2019-06-20T12:43:02.283Z,98867.78
2019-06-20T12:45:30.944Z,98872.64
2019-06-20T12:47:59.669Z,98863.14
2019-06-20T12:50:28.500Z,98866.02
2019-06-20T12:52:57.242Z,98862.52
2019-06-20T12:55:26.039Z,98855.11
2019-06-20T12:57:54.735Z,98851.20
2019-06-20T13:00:25.341Z,98839.67
2019-06-20T13:02:54.017Z,98841.76
2019-06-20T13:05:24.419Z,98844.44
2019-06-20T13:07:53.156Z,98842.61
2019-06-20T13:10:22.249Z,98842.80
2019-06-20T13:12:51.606Z,98839.23
2019-06-20T13:15:21.067Z,98836.17
2019-06-20T13:17:49.753Z,98832.09
2019-06-20T13:20:19.572Z,98837.19
2019-06-20T13:22:49.553Z,98841.82
2019-06-20T13:25:18.330Z,98842.53
2019-06-20T13:27:47.850Z,98839.11
2019-06-20T13:30:17.336Z,98844.89
2019-06-20T13:32:58.316Z,98844.86
2019-06-20T13:35:27.326Z,98839.64
2019-06-20T13:37:56.814Z,98842.84
2019-06-20T13:40:25.473Z,98837.52
2019-06-20T13:42:54.845Z,98847.42
2019-06-20T13:45:25.698Z,98835.08
2019-06-20T13:47:54.521Z,98833.69
2019-06-20T13:50:25.323Z,98836.47
2019-06-20T13:52:54.079Z,98833.36
2019-06-20T13:55:22.718Z,98829.41
2019-06-20T14:29:36.415Z,98837.06
2019-06-20T14:32:05.146Z,98838.52
2019-06-20T14:34:33.784Z,98842.90
2019-06-20T14:37:02.346Z,98842.72
2019-06-20T14:39:34.078Z,98842.42
2019-06-20T14:42:01.349Z,98846.32
2019-06-20T14:44:29.915Z,98859.62
2019-06-20T14:46:59.465Z,98870.11
2019-06-20T14:49:28.252Z,98888.88
2019-06-20T14:51:56.896Z,98917.06
2019-06-20T14:54:25.501Z,98938.82
2019-06-20T14:56:54.071Z,98932.41
2019-06-20T14:59:22.697Z,98939.80
2019-06-20T15:01:52.521Z,98943.52
2019-06-20T15:04:21.351Z,98958.02
2019-06-20T15:06:50.390Z,98969.80
2019-06-20T15:09:19.190Z,98961.88
2019-06-20T15:11:48.230Z,98971.36
2019-06-20T15:14:18.001Z,98974.57
2019-06-20T15:16:47.988Z,98974.11
2019-06-20T15:19:16.818Z,98974.04
2019-06-20T15:21:46.865Z,98960.02
2019-06-20T15:24:15.691Z,98959.06
2019-06-20T15:26:47.125Z,98970.47
2019-06-20T15:29:14.666Z,98970.56
2019-06-20T15:31:43.871Z,98965.61
2019-06-20T15:34:12.659Z,98966.42
2019-06-20T15:36:41.145Z,98966.67
2019-06-20T15:39:09.774Z,98966.31
2019-06-20T15:41:38.389Z,98964.75
2019-06-20T15:44:07.043Z,98973.91
2019-06-20T15:46:35.654Z,98975.45
2019-06-20T15:49:15.707Z,98972.67
2019-06-20T15:51:34.723Z,98968.00
2019-06-20T15:54:03.349Z,98980.80
2019-06-20T15:56:32.037Z,99007.53
2019-06-20T15:59:00.553Z,99030.00
2019-06-20T16:01:29.120Z,99014.00
2019-06-20T16:03:57.694Z,99014.12
2019-06-20T16:06:26.359Z,99028.17
2019-06-20T16:08:54.845Z,99030.50
2019-06-20T16:11:23.515Z,99032.72
2019-06-20T16:13:52.083Z,99034.16
2019-06-20T16:16:20.825Z,99031.99
2019-06-20T16:18:49.405Z,99030.11
2019-06-20T16:21:18.220Z,99021.85
2019-06-20T16:23:46.846Z,99021.24
2019-06-20T16:26:15.444Z,99034.38
2019-06-20T16:28:44.280Z,99034.05
2019-06-20T16:31:25.803Z,99049.15
2019-06-20T16:33:43.223Z,99047.77
2019-06-20T16:36:13.118Z,99049.33
2019-06-20T16:38:41.873Z,99054.66
2019-06-20T16:41:10.463Z,99052.64
2019-06-20T16:43:39.057Z,99049.56
2019-06-20T16:46:07.692Z,99044.46
2019-06-20T16:48:36.307Z,99040.50
2019-06-20T16:51:04.979Z,99038.47
2019-06-20T16:53:33.690Z,99035.13
2019-06-20T16:56:02.406Z,99034.47
2019-06-20T16:58:31.077Z,99033.02
2019-06-20T17:00:59.719Z,99033.28
2019-06-20T17:03:41.101Z,99022.76
2019-06-20T17:05:58.753Z,99020.86
2019-06-20T17:08:27.360Z,99035.58
2019-06-20T17:10:55.994Z,99032.47
2019-06-20T17:13:24.669Z,99030.23
2019-06-20T17:15:56.219Z,99032.30
2019-06-20T17:18:24.941Z,99020.80
2019-06-20T17:20:53.572Z,99016.97
2019-06-20T17:23:25.112Z,99026.75
2019-06-20T17:25:53.678Z,99025.14
2019-06-20T17:28:22.361Z,99023.53
2019-06-20T17:30:50.986Z,99019.16
2019-06-20T17:33:19.652Z,99027.21
2019-06-20T17:35:48.338Z,99031.47
2019-06-20T17:38:16.887Z,99036.84
2019-06-20T17:40:45.512Z,99032.48
2019-06-20T17:43:14.110Z,99032.03
2019-06-20T17:45:42.608Z,99034.89
2019-06-20T17:48:11.266Z,99026.13
2019-06-20T17:50:39.900Z,99025.25
2019-06-20T17:53:08.576Z,99023.66
2019-06-20T17:55:37.145Z,99024.08
2019-06-20T17:58:05.921Z,99031.78
2019-06-20T18:00:34.812Z,99028.70
2019-06-20T18:03:03.445Z,99028.95
2019-06-20T18:05:32.123Z,99028.62
2019-06-20T18:08:14.137Z,99024.02
2019-06-20T18:10:31.263Z,99027.89
2019-06-20T18:12:59.833Z,99022.40
2019-06-20T18:15:28.474Z,99023.58
2019-06-20T18:17:57.072Z,99020.73
2019-06-20T18:20:25.812Z,99021.73
2019-06-20T18:22:54.410Z,99020.20
2019-06-20T18:25:23.053Z,99023.27
2019-06-20T18:27:51.683Z,99034.06
2019-06-20T18:30:23.254Z,99040.28
2019-06-20T18:32:51.912Z,99046.84
2019-06-20T18:35:20.585Z,99045.63
2019-06-20T18:37:51.253Z,99057.09
2019-06-20T18:40:20.057Z,99065.53
2019-06-20T18:42:48.621Z,99064.23
2019-06-20T18:45:17.337Z,99067.70
2019-06-20T18:47:46.035Z,99074.08
2019-06-20T18:50:14.788Z,99078.30
2019-06-20T18:52:52.185Z,99090.39
2019-06-20T18:55:13.849Z,99089.61
2019-06-20T18:57:42.555Z,99094.73
2019-06-20T19:00:13.072Z,99102.30
2019-06-20T19:02:41.844Z,99106.44
2019-06-20T19:05:11.491Z,99110.33
2019-06-20T19:07:40.205Z,99115.26
2019-06-20T19:10:10.145Z,99119.98
2019-06-20T19:12:38.792Z,99130.13
2019-06-20T19:15:08.350Z,99122.98
2019-06-20T19:17:37.002Z,99121.05
2019-06-20T19:20:06.986Z,99124.80
2019-06-20T19:22:35.671Z,99135.34
2019-06-20T19:25:07.403Z,99142.69
2019-06-20T19:27:45.720Z,99140.26
2019-06-20T19:30:10.480Z,99128.78
2019-06-20T19:32:39.196Z,99127.41
2019-06-20T19:35:10.299Z,99122.58
2019-06-20T19:37:39.462Z,99120.91
2019-06-20T19:40:09.561Z,99124.11
2019-06-20T19:42:38.308Z,99113.48
2019-06-20T19:45:13.440Z,99118.55
2019-06-20T19:47:42.522Z,99124.12
2019-06-20T19:50:11.769Z,99121.36
2019-06-20T19:52:46.984Z,99125.03
2019-06-20T19:55:16.922Z,99129.12
2019-06-20T19:57:45.595Z,99133.70
2019-06-20T20:00:14.407Z,99134.53
2019-06-20T20:02:43.090Z,99137.67
2019-06-20T20:05:19.138Z,99138.64
2019-06-20T20:07:42.544Z,99145.17
2019-06-20T20:10:11.476Z,99153.02
2019-06-20T20:12:40.116Z,99152.28
2019-06-20T20:15:11.982Z,99166.12
2019-06-20T20:17:40.618Z,99169.48
2019-06-20T20:20:09.763Z,99178.04
2019-06-20T20:22:38.403Z,99181.18
2019-06-20T20:25:08.344Z,99190.11
2019-06-20T20:27:39.634Z,99186.97
2019-06-20T20:30:11.645Z,99177.45
2019-06-20T20:32:40.407Z,99183.14
2019-06-20T20:35:09.384Z,99180.26
2019-06-20T20:37:37.981Z,99187.11
2019-06-20T20:40:09.358Z,99189.30
2019-06-20T20:42:38.075Z,99191.39
2019-06-20T20:45:10.242Z,99194.66
2019-06-20T20:47:38.856Z,99202.39
2019-06-20T20:50:09.019Z,99201.92
2019-06-20T20:52:37.655Z,99200.48
2019-06-20T20:55:08.842Z,99201.33
2019-06-20T20:57:37.517Z,99201.55
2019-06-20T21:00:25.302Z,99206.27
2019-06-20T21:02:54.335Z,99209.63
2019-06-20T21:05:22.979Z,99213.00
2019-06-20T21:07:51.663Z,99221.58
2019-06-20T21:10:20.599Z,99227.27
2019-06-20T21:12:49.282Z,99222.45
2019-06-20T21:15:18.007Z,99233.30
2019-06-20T21:17:46.623Z,99227.36
2019-06-20T21:20:16.951Z,99233.42
2019-06-20T21:22:45.643Z,99230.13
2019-06-20T21:25:14.798Z,99235.90
2019-06-20T21:27:43.447Z,99236.10
2019-06-20T21:30:12.840Z,99236.69
2019-06-20T21:32:41.501Z,99238.77
2019-06-20T21:35:10.495Z,99242.35
2019-06-20T21:37:39.055Z,99235.10
2019-06-20T21:40:09.003Z,99224.23
2019-06-20T21:42:37.566Z,99224.85
2019-06-20T21:45:08.380Z,99219.89
2019-06-20T21:47:37.022Z,99220.08
2019-06-20T21:50:09.152Z,99220.25
2019-06-20T21:52:38.217Z,99219.08
2019-06-20T21:55:07.470Z,99212.62
2019-06-20T21:57:36.133Z,99214.38
2019-06-20T22:00:21.186Z,99208.69
2019-06-20T22:02:49.870Z,99202.02
2019-06-20T22:05:18.514Z,99202.48
2019-06-20T22:07:47.139Z,99203.02
2019-06-20T22:10:16.149Z,99209.12
2019-06-20T22:12:44.756Z,99210.13
2019-06-20T22:15:13.739Z,99210.45
2019-06-20T22:17:42.377Z,99210.03
2019-06-20T22:20:12.270Z,99206.23
2019-06-20T22:22:40.839Z,99200.80
2019-06-20T22:25:09.786Z,99207.56
2019-06-20T22:27:38.467Z,99202.83
2019-06-20T22:30:09.720Z,99206.29
2019-06-20T22:32:38.247Z,99203.11
2019-06-20T22:35:08.844Z,99200.33
2019-06-20T22:37:37.525Z,99198.91
2019-06-20T22:40:08.653Z,99196.09
2019-06-20T22:42:37.328Z,99199.13
2019-06-20T22:45:07.463Z,99200.28
2019-06-20T22:47:36.149Z,99199.83
2019-06-20T22:50:07.691Z,99199.66
2019-06-20T22:52:36.255Z,99195.69
2019-06-20T22:55:06.122Z,99192.58
2019-06-20T22:57:34.683Z,99193.25
2019-06-20T23:00:04.812Z,99204.52
2019-06-20T23:02:33.455Z,99200.06
2019-06-20T23:05:02.052Z,99198.77
2019-06-20T23:07:30.717Z,99207.58
2019-06-20T23:10:09.762Z,99213.22
2019-06-20T23:12:29.634Z,99211.02
2019-06-20T23:14:58.230Z,99214.67
2019-06-20T23:17:26.927Z,99215.78
2019-06-20T23:19:55.500Z,99209.59
2019-06-20T23:22:24.122Z,99202.13
2019-06-20T23:24:52.792Z,99204.15
2019-06-20T23:27:21.358Z,99199.98
2019-06-20T23:29:50.047Z,99201.70
2019-06-20T23:32:18.670Z,99207.87
2019-06-20T23:34:47.291Z,99205.63
2019-06-20T23:37:16.036Z,99203.77
2019-06-20T23:39:44.633Z,99216.73
2019-06-20T23:42:13.329Z,99216.22
2019-06-20T23:44:41.982Z,99210.50
2019-06-20T23:47:10.661Z,99205.30
2019-06-20T23:49:39.349Z,99214.00
2019-06-20T23:52:15.659Z,99214.19
2019-06-20T23:54:44.364Z,99214.38
2019-06-20T23:57:12.904Z,99217.08
2019-06-20T23:59:41.438Z,99207.97
